createdAt,value
2023-04-25T00:00:54.701Z,6.66
2023-04-25T00:03:22.548Z,6.66
2023-04-25T00:05:50.110Z,6.65
2023-04-25T00:08:17.412Z,6.62
2023-04-25T00:10:44.614Z,6.63
2023-04-25T00:13:12.757Z,6.64
2023-04-25T00:15:39.845Z,6.65
2023-04-25T00:18:07.558Z,6.64
2023-04-25T00:20:34.561Z,6.54
2023-04-25T00:23:01.498Z,6.50
2023-04-25T00:25:28.818Z,6.46
2023-04-25T00:27:56.635Z,6.44
2023-04-25T00:30:24.283Z,6.39
2023-04-25T00:32:51.879Z,6.36
2023-04-25T00:35:19.053Z,6.35
2023-04-25T00:37:46.951Z,6.32
2023-04-25T00:40:14.210Z,6.31
2023-04-25T00:42:42.616Z,6.29
2023-04-25T00:45:14.494Z,6.25
2023-04-25T00:47:42.724Z,6.21
2023-04-25T00:50:10.652Z,6.15
2023-04-25T00:52:44.162Z,6.10
2023-04-25T00:55:13.190Z,6.04
2023-04-25T00:57:41.719Z,5.93
2023-04-25T01:00:15.104Z,5.90
2023-04-25T01:02:43.844Z,5.87
2023-04-25T01:05:11.253Z,5.84
2023-04-25T01:07:38.898Z,5.80
2023-04-25T01:10:07.417Z,5.78
2023-04-25T01:12:35.169Z,5.74
2023-04-25T01:15:02.111Z,5.70
2023-04-25T01:17:30.357Z,5.64
2023-04-25T01:20:07.086Z,5.59
2023-04-25T01:22:34.507Z,5.54
2023-04-25T01:25:01.877Z,5.50
2023-04-25T01:27:31.509Z,5.45
2023-04-25T01:30:00.852Z,5.43
2023-04-25T01:32:28.819Z,5.39
2023-04-25T01:34:56.135Z,5.36
2023-04-25T01:37:23.688Z,5.35
2023-04-25T01:39:51.458Z,5.33
2023-04-25T01:42:19.057Z,5.36
2023-04-25T01:44:46.004Z,5.34
2023-04-25T01:47:12.976Z,5.33
2023-04-25T01:49:40.303Z,5.35
2023-04-25T01:52:07.307Z,5.32
2023-04-25T01:54:34.339Z,5.30
2023-04-25T01:57:02.928Z,5.25
2023-04-25T01:59:31.044Z,5.24
2023-04-25T02:02:07.976Z,5.18
2023-04-25T02:04:36.617Z,5.14
2023-04-25T02:07:10.229Z,5.09
2023-04-25T02:09:58.241Z,5.06
2023-04-25T02:12:29.038Z,5.06
2023-04-25T02:15:16.460Z,5.04
2023-04-25T02:17:50.500Z,5.03
2023-04-25T02:20:17.767Z,5.03
2023-04-25T02:22:44.759Z,5.01
2023-04-25T02:25:14.765Z,4.99
2023-04-25T02:27:42.326Z,4.94
2023-04-25T02:30:10.093Z,4.89
2023-04-25T02:32:37.852Z,4.85
2023-04-25T02:35:05.711Z,4.83
2023-04-25T02:37:34.502Z,4.80
2023-04-25T02:40:01.832Z,4.75
2023-04-25T02:42:29.544Z,4.72
2023-04-25T02:44:58.252Z,4.68
2023-04-25T02:47:26.053Z,4.72
2023-04-25T02:49:54.273Z,4.74
2023-04-25T02:52:28.402Z,4.76
2023-04-25T02:54:59.889Z,4.77
2023-04-25T02:57:29.274Z,4.78
2023-04-25T02:59:57.207Z,4.81
2023-04-25T03:02:24.862Z,4.85
2023-04-25T03:04:52.272Z,4.90
2023-04-25T03:07:20.555Z,5.04
2023-04-25T03:09:50.382Z,5.27
2023-04-25T03:12:17.883Z,5.54
2023-04-25T03:14:45.611Z,5.83
2023-04-25T03:17:13.134Z,6.18
2023-04-25T03:19:40.570Z,6.52
2023-04-25T03:22:08.288Z,6.84
2023-04-25T03:24:36.675Z,7.16
2023-04-25T03:27:04.769Z,7.57
2023-04-25T03:29:32.529Z,8.00
2023-04-25T03:32:04.790Z,8.42
2023-04-25T03:34:33.543Z,8.81
2023-04-25T03:37:01.246Z,9.31
2023-04-25T03:39:30.824Z,9.74
2023-04-25T03:42:00.301Z,10.18
2023-04-25T03:44:31.737Z,10.65
2023-04-25T03:47:01.634Z,11.06
2023-04-25T03:49:30.905Z,11.47
2023-04-25T03:52:03.314Z,11.86
2023-04-25T03:54:37.305Z,12.20
2023-04-25T03:57:16.461Z,12.46
2023-04-25T03:59:46.632Z,12.82
2023-04-25T04:02:16.196Z,13.18
2023-04-25T04:04:45.374Z,13.57
2023-04-25T04:07:13.828Z,14.02
2023-04-25T04:09:43.893Z,14.48
2023-04-25T04:12:18.024Z,14.86
2023-04-25T04:14:46.311Z,15.32
2023-04-25T04:17:14.080Z,15.69
2023-04-25T04:19:41.748Z,16.09
2023-04-25T04:22:16.058Z,16.47
2023-04-25T04:24:47.924Z,16.74
2023-04-25T04:27:21.515Z,17.18
2023-04-25T04:29:55.914Z,17.65
2023-04-25T04:32:28.695Z,18.12
2023-04-25T04:34:59.169Z,18.54
2023-04-25T04:37:26.404Z,18.93
2023-04-25T04:39:54.175Z,19.16
2023-04-25T04:42:32.828Z,19.55
2023-04-25T04:45:11.728Z,19.89
2023-04-25T04:47:47.002Z,20.28
2023-04-25T04:50:19.414Z,20.53
2023-04-25T04:53:09.694Z,20.55
2023-04-25T04:56:00.223Z,20.70
2023-04-25T04:58:51.538Z,21.00
2023-04-25T05:01:34.338Z,21.49
2023-04-25T05:04:21.951Z,21.89
2023-04-25T05:06:50.784Z,22.19
2023-04-25T05:09:37.124Z,22.46
2023-04-25T05:12:21.117Z,21.81
2023-04-25T05:15:16.568Z,21.55
2023-04-25T05:18:22.412Z,21.28
2023-04-25T05:21:09.553Z,20.97
2023-04-25T05:23:47.521Z,21.24
2023-04-25T05:26:33.992Z,20.86
2023-04-25T05:29:20.412Z,20.87
2023-04-25T05:32:07.621Z,20.86
2023-04-25T05:34:36.853Z,21.07
2023-04-25T05:37:07.659Z,21.43
2023-04-25T05:39:42.119Z,21.77
2023-04-25T05:42:37.217Z,22.30
2023-04-25T05:45:35.659Z,22.49
2023-04-25T05:48:22.493Z,23.32
2023-04-25T05:51:10.415Z,23.77
2023-04-25T05:53:47.359Z,24.59
2023-04-25T05:56:16.280Z,25.11
2023-04-25T05:58:43.716Z,25.46
2023-04-25T06:01:14.280Z,25.33
2023-04-25T06:03:44.384Z,26.08
2023-04-25T06:06:13.634Z,26.56
2023-04-25T06:08:42.989Z,25.30
2023-04-25T06:11:13.472Z,23.94
2023-04-25T06:13:41.231Z,23.11
2023-04-25T06:16:08.667Z,23.12
2023-04-25T06:18:36.561Z,23.30
2023-04-25T06:21:04.781Z,23.41
2023-04-25T06:23:33.161Z,23.62
2023-04-25T06:26:05.938Z,23.14
2023-04-25T06:28:35.927Z,22.80
2023-04-25T06:31:04.033Z,22.39
2023-04-25T06:33:31.941Z,22.13
2023-04-25T06:35:59.647Z,22.09
2023-04-25T06:38:28.213Z,22.17
2023-04-25T06:40:57.745Z,22.80
2023-04-25T06:43:28.047Z,22.88
2023-04-25T06:46:04.540Z,23.09
2023-04-25T06:48:33.990Z,23.21
2023-04-25T06:51:03.695Z,23.26
2023-04-25T06:53:32.227Z,23.25
2023-04-25T06:56:03.235Z,23.38
2023-04-25T06:58:41.286Z,23.50
2023-04-25T07:01:16.720Z,23.15
2023-04-25T07:03:44.816Z,23.11
2023-04-25T07:06:17.565Z,22.90
2023-04-25T07:08:44.849Z,22.64
2023-04-25T07:11:14.049Z,22.85
2023-04-25T07:13:44.016Z,22.82
2023-04-25T07:16:12.219Z,22.66
2023-04-25T07:18:39.915Z,22.36
2023-04-25T07:21:07.691Z,21.89
2023-04-25T07:23:36.738Z,21.78
2023-04-25T07:26:10.042Z,21.69
2023-04-25T07:28:42.894Z,21.67
2023-04-25T07:31:12.016Z,21.95
2023-04-25T07:33:39.832Z,21.86
2023-04-25T07:36:08.655Z,22.05
2023-04-25T07:38:35.967Z,22.07
2023-04-25T07:41:03.368Z,22.18
2023-04-25T07:43:31.807Z,22.21
2023-04-25T07:46:00.201Z,22.64
2023-04-25T07:48:31.072Z,22.98
2023-04-25T07:50:58.705Z,23.07
2023-04-25T07:53:25.726Z,23.39
2023-04-25T07:56:01.130Z,23.33
2023-04-25T07:58:32.118Z,23.49
2023-04-25T08:01:02.394Z,23.17
2023-04-25T08:03:35.808Z,23.39
2023-04-25T08:06:08.410Z,23.40
2023-04-25T08:08:44.374Z,23.08
2023-04-25T08:11:14.807Z,23.03
2023-04-25T08:13:42.024Z,22.84
2023-04-25T08:16:11.049Z,22.77
2023-04-25T08:18:38.602Z,22.89
2023-04-25T08:21:08.691Z,23.23
2023-04-25T08:23:36.827Z,23.35
2023-04-25T08:26:10.256Z,23.22
2023-04-25T08:28:39.869Z,23.41
2023-04-25T08:31:07.258Z,23.73
2023-04-25T08:33:45.947Z,24.09
2023-04-25T08:36:39.463Z,24.35
2023-04-25T08:39:19.951Z,24.20
2023-04-25T08:42:09.017Z,24.34
2023-04-25T08:44:39.526Z,24.37
2023-04-25T08:47:07.101Z,24.15
2023-04-25T08:49:47.179Z,23.81
2023-04-25T08:52:15.918Z,24.40
2023-04-25T08:54:48.304Z,24.77
2023-04-25T08:57:16.568Z,24.81
2023-04-25T08:59:47.527Z,24.81
2023-04-25T09:02:18.124Z,24.47
2023-04-25T09:04:49.763Z,24.66
2023-04-25T09:07:19.817Z,24.96
2023-04-25T09:09:47.066Z,25.84
2023-04-25T09:12:20.581Z,25.47
2023-04-25T09:15:11.525Z,25.77
2023-04-25T09:18:01.572Z,26.17
2023-04-25T09:20:59.656Z,26.36
2023-04-25T09:23:28.939Z,26.64
2023-04-25T09:25:56.841Z,27.16
2023-04-25T09:28:30.878Z,27.33
2023-04-25T09:31:01.960Z,28.08
2023-04-25T09:33:43.810Z,28.28
2023-04-25T09:36:15.236Z,28.67
2023-04-25T09:38:57.613Z,29.23
2023-04-25T09:41:28.929Z,28.95
2023-04-25T09:44:01.060Z,29.23
2023-04-25T09:46:38.871Z,29.09
2023-04-25T09:49:11.586Z,29.96
2023-04-25T09:51:59.013Z,29.53
2023-04-25T09:54:30.808Z,30.62
2023-04-25T09:57:25.993Z,30.25
2023-04-25T09:59:57.203Z,30.19
2023-04-25T10:02:28.680Z,28.56
2023-04-25T10:05:04.868Z,27.74
2023-04-25T10:07:40.811Z,26.98
2023-04-25T10:10:17.006Z,27.26
2023-04-25T10:12:46.068Z,28.38
2023-04-25T10:15:16.678Z,28.32
2023-04-25T10:17:45.581Z,28.45
2023-04-25T10:20:14.039Z,29.27
2023-04-25T10:22:45.469Z,29.39
2023-04-25T10:25:13.403Z,29.43
2023-04-25T10:27:41.180Z,28.88
2023-04-25T10:30:16.841Z,28.97
2023-04-25T10:32:46.190Z,28.49
2023-04-25T10:35:17.690Z,28.50
2023-04-25T10:38:08.767Z,27.96
2023-04-25T10:40:37.457Z,27.50
2023-04-25T10:43:32.586Z,27.89
2023-04-25T10:46:04.598Z,27.10
2023-04-25T10:48:32.884Z,26.39
2023-04-25T10:51:13.662Z,25.78
2023-04-25T10:53:41.104Z,25.76
2023-04-25T10:56:15.633Z,26.43
2023-04-25T10:58:48.117Z,27.60
2023-04-25T11:01:21.718Z,28.32
2023-04-25T11:04:08.001Z,28.41
2023-04-25T11:07:12.690Z,28.34
2023-04-25T11:09:42.122Z,28.19
2023-04-25T11:12:11.119Z,28.60
2023-04-25T11:17:07.830Z,27.54
2023-04-25T11:19:35.351Z,26.52
2023-04-25T11:22:04.096Z,26.41
2023-04-25T11:24:33.357Z,26.67
2023-04-25T11:27:01.209Z,26.61
2023-04-25T11:29:29.180Z,25.53
2023-04-25T11:31:59.562Z,24.98
2023-04-25T11:34:28.301Z,24.90
2023-04-25T11:36:55.963Z,25.30
2023-04-25T11:39:24.590Z,25.98
2023-04-25T11:41:51.643Z,26.60
2023-04-25T11:44:20.387Z,27.28
2023-04-25T11:46:48.938Z,27.59
2023-04-25T11:49:16.838Z,27.43
2023-04-25T11:51:49.790Z,27.87
2023-04-25T11:54:17.360Z,27.59
2023-04-25T11:56:45.989Z,27.94
2023-04-25T11:59:14.394Z,28.53
2023-04-25T12:01:50.811Z,28.92
2023-04-25T12:04:19.375Z,29.56
2023-04-25T12:06:49.203Z,29.52
2023-04-25T12:09:38.831Z,28.39
2023-04-25T12:12:07.052Z,27.56
2023-04-25T12:14:37.087Z,27.67
2023-04-25T12:17:09.535Z,27.59
2023-04-25T12:19:41.442Z,27.83
2023-04-25T12:22:23.719Z,28.21
2023-04-25T12:24:51.850Z,28.41
2023-04-25T12:27:20.463Z,28.47
2023-04-25T12:29:57.911Z,27.80
2023-04-25T12:32:26.840Z,26.97
2023-04-25T12:34:54.203Z,26.96
2023-04-25T12:37:23.117Z,26.35
2023-04-25T12:39:51.872Z,25.98
2023-04-25T12:42:19.452Z,25.99
2023-04-25T12:44:47.710Z,26.56
2023-04-25T12:47:15.471Z,27.46
2023-04-25T12:49:42.338Z,27.90
2023-04-25T12:52:10.503Z,27.55
2023-04-25T12:54:37.624Z,26.25
2023-04-25T12:57:04.727Z,25.58
2023-04-25T12:59:34.561Z,24.95
2023-04-25T13:02:02.161Z,24.39
2023-04-25T13:04:29.442Z,24.46
2023-04-25T13:06:57.181Z,24.53
2023-04-25T13:09:24.974Z,24.88
2023-04-25T13:11:56.040Z,25.54
2023-04-25T13:14:25.348Z,26.49
2023-04-25T13:16:53.538Z,27.04
2023-04-25T13:19:21.471Z,27.12
2023-04-25T13:21:48.643Z,27.43
2023-04-25T13:24:15.657Z,27.64
2023-04-25T13:26:43.102Z,27.95
2023-04-25T13:29:10.207Z,27.00
2023-04-25T13:31:37.532Z,26.95
2023-04-25T13:34:04.757Z,26.07
2023-04-25T13:36:33.109Z,25.64
2023-04-25T13:39:01.045Z,25.24
2023-04-25T13:41:28.162Z,25.19
2023-04-25T13:43:55.619Z,25.39
2023-04-25T13:46:44.636Z,25.63
2023-04-25T13:49:16.764Z,26.23
2023-04-25T13:51:44.001Z,26.22
2023-04-25T13:54:11.857Z,25.91
2023-04-25T13:56:39.556Z,25.36
2023-04-25T13:59:07.014Z,24.98
2023-04-25T14:01:37.104Z,24.58
2023-04-25T14:04:07.984Z,24.26
2023-04-25T14:06:38.064Z,24.26
2023-04-25T14:09:08.400Z,24.50
2023-04-25T14:11:35.514Z,24.34
2023-04-25T14:14:02.711Z,24.38
2023-04-25T14:16:31.594Z,24.31
2023-04-25T14:19:02.167Z,24.33
2023-04-25T14:21:30.596Z,23.64
2023-04-25T14:23:58.505Z,23.15
2023-04-25T14:26:25.933Z,23.17
2023-04-25T14:28:53.783Z,23.07
2023-04-25T14:31:22.488Z,22.61
2023-04-25T14:33:54.744Z,22.60
2023-04-25T14:36:23.331Z,22.48
2023-04-25T14:38:50.686Z,22.49
2023-04-25T14:41:18.230Z,22.58
2023-04-25T14:43:46.758Z,22.45
2023-04-25T14:46:15.765Z,22.11
2023-04-25T14:48:43.891Z,21.82
2023-04-25T14:51:10.795Z,21.88
2023-04-25T14:53:39.606Z,21.75
2023-04-25T14:56:06.859Z,21.77
2023-04-25T14:58:34.033Z,21.89
2023-04-25T15:01:01.627Z,21.62
2023-04-25T15:03:29.346Z,21.16
2023-04-25T15:05:57.128Z,20.83
2023-04-25T15:08:24.470Z,20.47
2023-04-25T15:10:51.900Z,20.20
2023-04-25T15:13:20.472Z,19.92
2023-04-25T15:15:52.561Z,19.64
2023-04-25T15:18:25.241Z,19.43
2023-04-25T15:20:53.580Z,19.27
2023-04-25T15:23:22.736Z,19.12
2023-04-25T15:25:53.020Z,18.94
2023-04-25T15:28:22.620Z,18.82
2023-04-25T15:30:50.249Z,18.89
2023-04-25T15:33:18.031Z,18.67
2023-04-25T15:35:46.194Z,18.58
2023-04-25T15:38:13.807Z,18.45
2023-04-25T15:40:44.879Z,18.33
2023-04-25T15:43:16.183Z,18.25
2023-04-25T15:45:43.802Z,18.16
2023-04-25T15:48:11.523Z,18.07
2023-04-25T15:50:39.217Z,17.91
2023-04-25T15:53:07.476Z,17.77
2023-04-25T15:55:35.583Z,17.68
2023-04-25T15:58:03.292Z,17.59
2023-04-25T16:00:31.837Z,17.52
2023-04-25T16:02:59.717Z,17.32
2023-04-25T16:05:27.408Z,17.27
2023-04-25T16:07:57.805Z,17.24
2023-04-25T16:10:25.285Z,17.17
2023-04-25T16:12:53.359Z,17.06
2023-04-25T16:15:20.934Z,17.00
2023-04-25T16:17:48.548Z,16.93
2023-04-25T16:20:15.960Z,16.80
2023-04-25T16:22:44.689Z,16.74
2023-04-25T16:25:12.954Z,16.68
2023-04-25T16:27:41.963Z,16.57
2023-04-25T16:30:10.942Z,16.47
2023-04-25T16:32:40.384Z,16.34
2023-04-25T16:35:09.641Z,16.26
2023-04-25T16:37:38.457Z,16.16
2023-04-25T16:40:09.277Z,16.04
2023-04-25T16:42:37.502Z,15.91
2023-04-25T16:45:05.546Z,15.73
2023-04-25T16:47:33.729Z,15.66
2023-04-25T16:50:01.839Z,15.53
2023-04-25T16:52:28.836Z,15.41
2023-04-25T16:54:55.854Z,15.25
2023-04-25T16:57:23.548Z,15.14
2023-04-25T16:59:50.980Z,15.03
2023-04-25T17:02:19.214Z,14.92
2023-04-25T17:04:47.100Z,14.77
2023-04-25T17:07:15.387Z,14.65
2023-04-25T17:09:42.840Z,14.54
2023-04-25T17:12:11.519Z,14.39
2023-04-25T17:14:39.634Z,14.27
2023-04-25T17:17:07.423Z,14.18
2023-04-25T17:19:37.047Z,14.06
2023-04-25T17:22:05.333Z,13.92
2023-04-25T17:24:32.996Z,13.77
2023-04-25T17:27:00.110Z,13.67
2023-04-25T17:29:28.450Z,13.56
2023-04-25T17:31:57.434Z,13.47
2023-04-25T17:34:25.222Z,13.38
2023-04-25T17:36:52.823Z,13.28
2023-04-25T17:39:20.492Z,13.20
2023-04-25T17:41:47.688Z,13.12
2023-04-25T17:44:15.631Z,13.04
2023-04-25T17:46:43.444Z,12.98
2023-04-25T17:49:11.981Z,12.89
2023-04-25T17:51:39.589Z,12.84
2023-04-25T17:54:07.160Z,12.77
2023-04-25T17:56:37.990Z,12.69
2023-04-25T17:59:05.587Z,12.63
2023-04-25T18:01:32.970Z,12.61
2023-04-25T18:04:01.832Z,12.59
2023-04-25T18:06:29.806Z,12.57
2023-04-25T18:09:00.314Z,12.57
2023-04-25T18:11:28.217Z,12.56
2023-04-25T18:13:56.418Z,12.57
2023-04-25T18:16:23.694Z,12.59
2023-04-25T18:18:54.968Z,12.59
2023-04-25T18:21:23.074Z,12.61
2023-04-25T18:23:50.427Z,12.65
2023-04-25T18:26:18.588Z,12.66
2023-04-25T18:28:46.010Z,12.63
2023-04-25T18:31:14.344Z,12.58
2023-04-25T18:33:44.881Z,12.53
2023-04-25T18:36:12.124Z,12.46
2023-04-25T18:38:40.490Z,12.43
2023-04-25T18:41:33.850Z,12.42
2023-04-25T18:43:58.718Z,12.40
2023-04-25T18:46:26.426Z,12.38
2023-04-25T18:48:54.617Z,12.35
2023-04-25T18:51:30.051Z,12.33
2023-04-25T18:54:00.641Z,12.30
2023-04-25T18:56:29.000Z,12.23
2023-04-25T18:58:58.745Z,12.14
2023-04-25T19:01:29.135Z,12.04
2023-04-25T19:03:57.652Z,11.95
2023-04-25T19:06:28.142Z,11.86
2023-04-25T19:08:57.800Z,11.79
2023-04-25T19:11:25.706Z,11.67
2023-04-25T19:13:56.875Z,11.57
2023-04-25T19:16:26.734Z,11.45
2023-04-25T19:18:57.311Z,11.36
2023-04-25T19:21:24.997Z,11.27
2023-04-25T19:23:54.878Z,11.19
2023-04-25T19:26:22.864Z,11.11
2023-04-25T19:29:09.135Z,11.04
2023-04-25T19:31:38.167Z,10.97
2023-04-25T19:34:07.999Z,10.92
2023-04-25T19:36:38.773Z,10.87
2023-04-25T19:39:09.266Z,10.80
2023-04-25T19:41:38.957Z,10.76
2023-04-25T19:44:07.859Z,10.70
2023-04-25T19:46:37.071Z,10.65
2023-04-25T19:49:08.193Z,10.67
2023-04-25T19:51:36.741Z,10.70
2023-04-25T19:54:04.604Z,10.74
2023-04-25T19:56:31.711Z,10.78
2023-04-25T19:58:58.698Z,10.82
2023-04-25T20:01:26.418Z,10.81
2023-04-25T20:03:54.166Z,10.81
2023-04-25T20:06:22.007Z,10.75
2023-04-25T20:08:51.020Z,10.69
2023-04-25T20:11:18.501Z,10.65
2023-04-25T20:13:45.934Z,10.57
2023-04-25T20:16:14.019Z,10.54
2023-04-25T20:18:42.022Z,10.52
2023-04-25T20:21:09.379Z,10.52
2023-04-25T20:23:38.412Z,10.54
2023-04-25T20:26:05.825Z,10.57
2023-04-25T20:28:33.280Z,10.62
2023-04-25T20:31:04.026Z,10.63
2023-04-25T20:33:31.649Z,10.64
2023-04-25T20:35:59.256Z,10.69
2023-04-25T20:38:27.041Z,10.73
2023-04-25T20:40:56.156Z,10.74
2023-04-25T20:43:24.011Z,10.74
2023-04-25T20:45:50.980Z,10.74
2023-04-25T20:48:18.589Z,10.72
2023-04-25T20:50:47.800Z,10.73
2023-04-25T20:53:15.249Z,10.68
2023-04-25T20:55:42.284Z,10.63
2023-04-25T20:58:09.872Z,10.60
2023-04-25T21:00:39.586Z,10.52
2023-04-25T21:03:08.031Z,10.51
2023-04-25T21:05:36.512Z,10.48
2023-04-25T21:08:04.458Z,10.44
2023-04-25T21:10:31.561Z,10.41
2023-04-25T21:12:58.981Z,10.34
2023-04-25T21:15:26.876Z,10.28
2023-04-25T21:17:54.999Z,10.25
2023-04-25T21:20:22.085Z,10.18
2023-04-25T21:22:53.755Z,10.15
2023-04-25T21:25:25.735Z,10.10
2023-04-25T21:27:53.597Z,10.05
2023-04-25T21:30:23.748Z,9.99
2023-04-25T21:32:52.972Z,9.93
2023-04-25T21:35:23.396Z,9.88
2023-04-25T21:37:51.890Z,9.81
2023-04-25T21:40:19.084Z,9.76
2023-04-25T21:42:54.348Z,9.70
2023-04-25T21:45:22.611Z,9.64
2023-04-25T21:47:50.713Z,9.56
2023-04-25T21:50:18.901Z,9.50
2023-04-25T21:52:45.966Z,9.43
2023-04-25T21:55:13.322Z,9.37
2023-04-25T21:57:43.534Z,9.32
2023-04-25T22:00:21.993Z,9.28
2023-04-25T22:02:49.822Z,9.26
2023-04-25T22:05:18.323Z,9.24
2023-04-25T22:07:45.950Z,9.21
2023-04-25T22:10:13.802Z,9.18
2023-04-25T22:12:41.450Z,9.15
2023-04-25T22:15:10.216Z,9.13
2023-04-25T22:17:38.874Z,9.12
2023-04-25T22:20:14.381Z,9.08
2023-04-25T22:22:42.142Z,9.07
2023-04-25T22:25:10.049Z,9.03
2023-04-25T22:27:37.035Z,8.98
2023-04-25T22:30:04.868Z,8.89
2023-04-25T22:32:32.325Z,8.83
2023-04-25T22:34:59.959Z,8.77
2023-04-25T22:37:27.208Z,8.66
2023-04-25T22:39:55.121Z,8.55
2023-04-25T22:42:22.226Z,8.44
2023-04-25T22:44:49.824Z,8.34
2023-04-25T22:47:17.071Z,8.23
2023-04-25T22:49:45.761Z,8.14
2023-04-25T22:52:13.339Z,8.09
2023-04-25T22:54:40.281Z,8.06
2023-04-25T22:57:08.394Z,8.05
2023-04-25T22:59:37.019Z,8.04
2023-04-25T23:02:04.019Z,8.05
2023-04-25T23:04:31.464Z,8.07
2023-04-25T23:06:58.841Z,8.11
2023-04-25T23:09:26.746Z,8.11
2023-04-25T23:11:54.042Z,8.13
2023-04-25T23:14:21.348Z,8.16
2023-04-25T23:16:48.588Z,8.12
2023-04-25T23:19:15.625Z,8.09
2023-04-25T23:21:43.032Z,8.10
2023-04-25T23:24:10.282Z,8.10
2023-04-25T23:26:37.701Z,8.11
2023-04-25T23:29:05.271Z,8.09
2023-04-25T23:31:32.531Z,8.11
2023-04-25T23:34:00.276Z,8.08
2023-04-25T23:36:28.399Z,8.07
2023-04-25T23:38:56.356Z,8.06
2023-04-25T23:41:23.877Z,8.07
2023-04-25T23:43:51.001Z,8.05
2023-04-25T23:46:19.000Z,8.03
2023-04-25T23:48:46.806Z,8.02
2023-04-25T23:51:14.432Z,8.00
2023-04-25T23:53:42.108Z,7.99
2023-04-25T23:56:10.028Z,7.97
2023-04-25T23:58:37.458Z,7.96
